• Join FlightAware (Why Join?)
  • Login
  • US Flag 
01:02PM EDT


 

Airport Tracker/Info


-or-


 

Live Flight TrackerFlight Track Log ✈ N700QA ✈ 03-Apr-2014 ✈ KLAX - KFLL

Flight Track Log - Related Links

Times and Time Zones

All times are in EDT time to prevent confusion due to time zone crossing. See the N700QA flight status page for this flight to view local times or setup timezone preferences in your user account.

Time Position Orientation Groundspeed Altitude Reporting Facility
EDT Latitude Longitude Course Direction KTS MPH feet Rate Location/Type
11:45PM 33.9333 -118.4333 217° Southwest 182 209 1,600  Level Southern California TRACON
11:47PM 33.8628 -118.4978 217° Southwest 257 296 4,700 2,580 Climbing Los Angeles Center
11:48PM 33.7981 -118.5225 198° South 267 307 7,600 2,580 Climbing Los Angeles Center
11:49PM 33.7256 -118.5108 172° South 268 308 10,100 2,100 Climbing Los Angeles Center
11:50PM 33.6836 -118.4022 115° Southeast 316 364 12,000 1,740 Climbing Los Angeles Center
11:51PM 33.6828 -118.2908 90° East 343 395 13,800 1,980 Climbing Los Angeles Center
11:52PM 33.6753 -118.1758 94° East 351 404 16,200 2,220 Climbing Los Angeles Center
11:53PM 33.6611 -118.0647 99° East 343 395 18,400 1,320 Climbing Los Angeles Center
11:54PM 33.6475 -117.9250 97° East 352 405 19,000 720 Climbing Los Angeles Center
11:55PM 33.6344 -117.7972 97° East 380 437 20,000 900 Climbing Los Angeles Center
11:56PM 33.6192 -117.6656 98° East 396 456 20,900 600 Climbing Los Angeles Center
11:57PM 33.6050 -117.5319 97° East 403 464 21,300 720 Climbing Los Angeles Center
11:58PM 33.5914 -117.4014 97° East 397 457 22,400 900 Climbing Los Angeles Center
11:59PM 33.5761 -117.2758 98° East 382 440 23,200 840 Climbing Los Angeles Center
12:00AM 33.5600 -117.1369 98° East 396 456 24,200 960 Climbing Los Angeles Center
12:01AM 33.5436 -117.0022 98° East 407 468 25,200 960 Climbing Los Angeles Center
12:02AM 33.5275 -116.8628 98° East 415 478 26,200 960 Climbing Los Angeles Center
12:03AM 33.5244 -116.7217 91° East 422 486 27,200 1,080 Climbing Los Angeles Center
12:04AM 33.5322 -116.5539 87° East 421 484 28,500 1,080 Climbing Los Angeles Center
12:05AM 33.5375 -116.4153 87° East 418 481 29,500 780 Climbing Los Angeles Center
12:06AM 33.5422 -116.2725 88° East 423 487 30,200 660 Climbing Los Angeles Center
12:07AM 33.5467 -116.1306 88° East 424 488 30,900 660 Climbing Los Angeles Center
12:08AM 33.5497 -115.9856 89° East 430 495 31,600 780 Climbing Los Angeles Center
12:09AM 33.5544 -115.8403 88° East 434 499 32,500 720 Climbing Los Angeles Center
12:10AM 33.5344 -115.7000 100° East 428 493 33,100 660 Climbing Los Angeles Center
12:11AM 33.5067 -115.5606 103° East 430 495 33,900 780 Climbing Los Angeles Center
12:12AM 33.4833 -115.3933 99° East 427 491 34,700 480 Climbing Los Angeles Center
12:13AM 33.4619 -115.2528 100° East 427 491 35,000 120 Climbing Los Angeles Center
12:14AM 33.4408 -115.1078 100° East 439 505 35,000  Level Los Angeles Center
12:15AM 33.4186 -114.9583 100° East 454 522 35,100  Climbing Los Angeles Center
12:16AM 33.3961 -114.8044 100° East 470 541 35,100  Level Los Angeles Center
12:18AM 33.3750 -114.6497 99° East 479 551 35,100  Level Los Angeles Center
12:19AM 33.3503 -114.4956 101° East 475 547 35,100  Level Los Angeles Center
12:20AM 33.3278 -114.3383 100° East 477 549 35,100  Level Los Angeles Center
12:21AM 33.2989 -114.1500 100° East 482 555 35,100  Level Los Angeles Center
12:22AM 33.2742 -113.9925 101° East 483 556 35,100  Level Los Angeles Center
12:23AM 33.2494 -113.8364 101° East 478 550 35,100 -60 Level Los Angeles Center
12:24AM 33.2244 -113.6756 100° East 486 559 35,000 -60 Descending Los Angeles Center
12:25AM 33.1992 -113.5192 101° East 480 552 35,000  Level Los Angeles Center
12:26AM 33.1739 -113.3378 99° East 506 582 35,000  Level Los Angeles Center
12:27AM 33.1389 -113.1369 102° East 489 563 35,000  Level Albuquerque Center
12:28AM 33.1133 -112.9764 101° East 489 563 35,100  Climbing Albuquerque Center
12:29AM 33.0864 -112.8175 101° East 489 563 35,000 -60 Descending Albuquerque Center
12:30AM 33.0589 -112.6589 102° East 489 563 35,000  Level Albuquerque Center
12:31AM 33.0336 -112.5000 101° East 489 563 35,000  Level Albuquerque Center
12:32AM 33.0061 -112.3408 102° East 489 563 35,000  Level Albuquerque Center
12:33AM 32.9786 -112.1683 101° East 489 563 35,000  Level Albuquerque Center
12:34AM 32.9519 -112.0100 101° East 489 563 35,000  Level Albuquerque Center
12:35AM 32.9239 -111.8533 102° East 489 563 35,000  Level Albuquerque Center
12:36AM 32.8967 -111.6950 102° East 489 563 35,000  Level Albuquerque Center
12:37AM 32.8692 -111.5369 102° East 490 564 35,000  Level Albuquerque Center
12:38AM 32.8403 -111.3803 102° East 489 563 35,000  Level Albuquerque Center
12:39AM 32.8119 -111.2206 102° East 491 565 35,000  Level Albuquerque Center
12:40AM 32.7844 -111.0617 102° East 492 566 35,000  Level Albuquerque Center
12:41AM 32.7489 -110.8719 103° East 492 566 35,000  Level Albuquerque Center
12:42AM 32.7206 -110.7125 102° East 492 566 35,000  Level Albuquerque Center
12:43AM 32.6956 -110.5739 102° East 492 566 35,000  Level Albuquerque Center
12:44AM 32.6617 -110.3950 103° East 494 568 35,000  Level Albuquerque Center
12:45AM 32.6361 -110.2550 102° East 494 568 35,000  Level Albuquerque Center
12:46AM 32.5981 -110.0647 103° East 495 570 35,000 240 Level Albuquerque Center
12:47AM 32.5686 -109.9069 102° East 495 570 35,500 480 Climbing Albuquerque Center
12:48AM 32.5386 -109.7542 103° East 484 557 36,000 540 Climbing Albuquerque Center
12:49AM 32.5064 -109.6003 104° East 483 556 36,600 420 Climbing Albuquerque Center
12:50AM 32.4789 -109.4528 102° East 470 541 36,900 180 Climbing Albuquerque Center
12:51AM 32.4506 -109.3056 103° East 467 537 37,000  Climbing Albuquerque Center
12:52AM 32.4200 -109.1544 103° East 469 540 37,000  Level Albuquerque Center
12:53AM 32.3908 -109.0025 103° East 474 545 37,000  Level Albuquerque Center
12:54AM 32.3603 -108.8494 103° East 480 552 37,000  Level Albuquerque Center
12:55AM 32.3283 -108.6947 104° East 483 556 37,000  Level Albuquerque Center
12:56AM 32.2975 -108.5383 103° East 489 563 37,100  Climbing Albuquerque Center
12:57AM 32.2614 -108.3619 104° East 490 564 37,000  Descending Albuquerque Center
12:58AM 32.2292 -108.2042 104° East 490 564 37,100  Climbing Albuquerque Center
01:00AM 32.1958 -108.0467 104° East 494 568 37,000  Descending Albuquerque Center
01:01AM 32.1639 -107.8872 103° East 497 572 37,100  Climbing Albuquerque Center
01:02AM 32.1303 -107.7289 104° East 498 573 37,100 -60 Level Albuquerque Center
01:03AM 32.0972 -107.5714 104° East 499 574 37,000  Descending Albuquerque Center
01:04AM 32.0647 -107.4117 103° East 501 577 37,100  Climbing Albuquerque Center
01:05AM 32.0233 -107.2217 104° East 502 578 37,100  Level Albuquerque Center
01:06AM 31.9892 -107.0622 104° East 503 579 37,100  Level Albuquerque Center
01:07AM 31.9547 -106.9017 104° East 506 582 37,100 -60 Level Albuquerque Center
01:08AM 31.9203 -106.7422 104° East 506 582 37,000  Descending Albuquerque Center
01:09AM 31.8850 -106.5822 105° East 507 583 37,100  Climbing Albuquerque Center
01:10AM 31.8492 -106.4269 105° East 508 585 37,100  Level Albuquerque Center
01:11AM 31.8133 -106.2647 105° East 509 586 37,100  Level Albuquerque Center
01:12AM 31.7719 -106.1033 107° East 511 588 37,100  Level Albuquerque Center
01:13AM 31.7303 -105.9433 107° East 512 589 37,100  Level Albuquerque Center
01:14AM 31.6908 -105.7814 106° East 514 592 37,100  Level Albuquerque Center
01:15AM 31.6483 -105.6200 107° East 515 593 37,100  Level Albuquerque Center
01:16AM 31.6089 -105.4575 106° East 515 593 37,100  Level Albuquerque Center
01:17AM 31.5639 -105.2797 107° East 516 594 37,100  Level Albuquerque Center
01:18AM 31.5192 -105.1000 106° East 516 594 37,100  Level Albuquerque Center
01:19AM 31.4775 -104.9372 107° East 516 594 37,100  Level Albuquerque Center
01:20AM 31.4361 -104.7764 107° East 516 594 37,100  Level Albuquerque Center
01:21AM 31.3933 -104.6161 107° East 515 593 37,100  Level Albuquerque Center
01:22AM 31.3511 -104.4542 107° East 515 593 37,100  Level Albuquerque Center
01:23AM 31.3094 -104.2931 107° East 516 594 37,100  Level Albuquerque Center
01:24AM 31.2658 -104.1317 108° East 517 595 37,100  Level Albuquerque Center
01:25AM 31.2233 -103.9689 107° East 519 597 37,100  Level Albuquerque Center
01:26AM 31.1794 -103.8069 108° East 519 597 37,100  Level Albuquerque Center
01:27AM 31.1331 -103.6403 108° East 520 598 37,100  Level Albuquerque Center
01:28AM 31.0897 -103.4792 107° East 521 600 37,100  Level Albuquerque Center
01:29AM 31.0444 -103.3186 108° East 522 601 37,100  Level Albuquerque Center
01:30AM 31.0017 -103.1581 107° East 522 601 37,100  Level Albuquerque Center
01:31AM 30.9606 -103.0008 107° East 517 595 37,100  Level Albuquerque Center
01:32AM 30.9381 -102.8333 99° East 527 606 37,100  Level Albuquerque Center
01:33AM 30.9214 -102.6644 97° East 528 608 37,100  Level Albuquerque Center
01:34AM 30.9042 -102.4983 97° East 527 606 37,100  Level Albuquerque Center
01:35AM 30.8864 -102.3317 97° East 527 606 37,100  Level Albuquerque Center
01:36AM 30.8686 -102.1317 96° East 527 606 37,100 60 Level Albuquerque Center
01:37AM 30.8644 -102.0658 94° East 526 605 37,200 420 Climbing Houston Center
01:38AM 30.8481 -101.9019 97° East 519 597 37,800 540 Climbing Houston Center
01:39AM 30.8331 -101.7422 96° East 508 585 38,300 420 Climbing Houston Center
01:40AM 30.8153 -101.5528 96° East 501 577 38,700 240 Climbing Houston Center
01:41AM 30.7994 -101.3939 97° East 501 577 38,900 180 Climbing Houston Center
01:42AM 30.7828 -101.2364 97° East 498 573 39,100  Climbing Houston Center
01:43AM 30.7683 -101.0781 96° East 497 572 39,000  Descending Houston Center
01:44AM 30.7506 -100.9183 97° East 497 572 39,100  Climbing Houston Center
01:45AM 30.7336 -100.7594 97° East 496 571 39,100  Level Houston Center
01:46AM 30.7164 -100.6000 97° East 502 578 39,100  Level Houston Center
01:47AM 30.6997 -100.4336 97° East 504 580 39,100  Level Houston Center
01:48AM 30.6833 -100.2703 97° East 505 581 39,100  Level Houston Center
01:49AM 30.6653 -100.1061 97° East 508 585 39,100  Level Houston Center
01:50AM 30.6478 -99.9428 97° East 508 585 39,100  Level Houston Center
01:51AM 30.6292 -99.7778 97° East 511 588 39,100  Level Houston Center
01:52AM 30.6103 -99.6153 98° East 509 586 39,100  Level Houston Center
01:53AM 30.5914 -99.4511 98° East 510 587 39,100  Level Houston Center
01:54AM 30.5731 -99.2872 97° East 511 588 39,100  Level Houston Center
01:55AM 30.5547 -99.1233 97° East 511 588 39,100  Level Houston Center
01:56AM 30.5336 -98.9592 98° East 512 589 39,100 -60 Level Houston Center
01:57AM 30.5136 -98.7906 98° East 512 589 39,000 -60 Descending Houston Center
01:58AM 30.4956 -98.6278 97° East 512 589 39,000  Level Houston Center
01:59AM 30.4775 -98.4825 98° East 512 589 39,000  Level Houston Center
02:00AM 30.4569 -98.3219 98° East 508 585 39,000  Level Houston Center
02:01AM 30.4372 -98.1617 98° East 506 582 39,100  Climbing Houston Center
02:02AM 30.4172 -98.0025 98° East 504 580 39,000 -60 Descending Houston Center
02:03AM 30.3953 -97.8361 99° East 501 577 39,000  Level Houston Center
02:04AM 30.3736 -97.6783 99° East 501 577 39,000  Level Houston Center
02:05AM 30.3575 -97.5228 97° East 503 579 39,000  Level Houston Center
02:06AM 30.3314 -97.3586 100° East 503 579 39,000  Level Houston Center
02:07AM 30.3150 -97.2014 97° East 506 582 39,000  Level Houston Center
02:08AM 30.2933 -97.0394 99° East 506 582 39,000  Level Houston Center
02:09AM 30.2719 -96.8778 99° East 506 582 39,000  Level Houston Center
02:10AM 30.2503 -96.7158 99° East 507 583 39,100  Climbing Houston Center
02:11AM 30.2278 -96.5544 99° East 507 583 39,000 -60 Descending Houston Center
02:12AM 30.2050 -96.3911 99° East 508 585 39,000  Level Houston Center
02:13AM 30.1833 -96.2292 99° East 510 587 39,000  Level Houston Center
02:14AM 30.1594 -96.0678 100° East 510 587 39,000  Level Houston Center
02:15AM 30.1372 -95.9039 99° East 510 587 39,100  Climbing Houston Center
02:16AM 30.1136 -95.7428 100° East 509 586 39,000 -60 Descending Houston Center
02:17AM 30.0917 -95.5847 99° East 509 586 39,000  Level Houston Center
02:18AM 30.0694 -95.4239 99° East 507 583 39,100  Climbing Houston Center
02:19AM 30.0439 -95.2594 100° East 508 585 39,100 -60 Level Houston Center
02:20AM 30.0200 -95.0978 100° East 508 585 39,000 -60 Descending Houston Center
02:21AM 29.9939 -94.9375 101° East 505 581 39,000  Level Houston Center
02:22AM 29.9592 -94.7800 104° East 505 581 39,100  Climbing Houston Center
02:23AM 29.9272 -94.6239 103° East 503 579 39,000  Descending Houston Center
02:24AM 29.8950 -94.4678 103° East 502 578 39,100  Climbing Houston Center
02:25AM 29.8608 -94.3106 104° East 503 579 39,000 -60 Descending Houston Center
02:26AM 29.8267 -94.1433 103° East 502 578 39,000  Level Houston Center
02:27AM 29.7936 -93.9892 104° East 501 577 39,100  Climbing Houston Center
02:28AM 29.7617 -93.8447 104° East 501 577 39,000 -60 Descending Houston Center
02:29AM 29.7267 -93.6831 104° East 500 575 39,000  Level Houston Center
02:30AM 29.6925 -93.5292 104° East 499 574 39,000  Level Houston Center
02:31AM 29.6600 -93.3764 104° East 499 574 39,000  Level Houston Center
02:32AM 29.6261 -93.2236 104° East 498 573 39,000  Level Houston Center
02:33AM 29.5928 -93.0703 104° East 498 573 39,000  Level Houston Center
02:34AM 29.5589 -92.9164 104° East 498 573 39,000  Level Houston Center
02:35AM 29.5233 -92.7656 105° East 497 572 39,100  Climbing Houston Center
02:36AM 29.4906 -92.6119 104° East 496 571 39,000  Descending Houston Center
02:37AM 29.4556 -92.4594 105° East 496 571 39,100  Climbing Houston Center
02:38AM 29.4203 -92.3083 105° East 496 571 39,100  Level Houston Center
02:39AM 29.3858 -92.1561 105° East 494 568 39,100  Level Houston Center
02:40AM 29.3506 -92.0050 105° East 494 568 39,100  Level Houston Center
02:41AM 29.3142 -91.8544 105° East 493 567 39,100  Level Houston Center
02:42AM 29.2789 -91.6956 104° East 493 567 39,100  Level Houston Center
02:43AM 29.2433 -91.5461 105° East 492 566 39,100  Level Houston Center
02:44AM 29.2075 -91.3964 105° East 492 566 39,100 -60 Level Houston Center
02:45AM 29.1733 -91.2464 105° East 490 564 39,000  Descending Houston Center
02:46AM 29.1372 -91.0969 105° East 490 564 39,100  Climbing Houston Center
02:47AM 29.1003 -90.9475 106° East 490 564 39,000 -60 Descending Houston Center
02:48AM 29.0647 -90.7975 105° East 490 564 39,000  Level Houston Center
02:49AM 29.0294 -90.6481 105° East 490 564 39,000  Level Houston Center
02:50AM 28.9928 -90.4975 106° East 491 565 39,100  Climbing Houston Center
02:51AM 28.9561 -90.3478 106° East 491 565 39,000  Descending Houston Center
02:52AM 28.9189 -90.1992 106° East 491 565 39,100  Climbing Houston Center
02:53AM 28.8817 -90.0489 106° East 492 566 39,000  Descending Houston Center
02:54AM 28.8444 -89.8997 106° East 491 565 39,100  Climbing Houston Center
02:55AM 28.8064 -89.7486 106° East 493 567 39,000  Descending Houston Center
02:56AM 28.7692 -89.5989 106° East 494 568 39,100  Climbing Houston Center
02:57AM 28.7314 -89.4478 106° East 495 570 39,100  Level Houston Center
02:58AM 28.6856 -89.2678 106° East 495 570 39,100  Level Houston Center
02:59AM 28.6475 -89.1211 106° East 489 563 39,100  Level Houston Center
03:00AM 28.6089 -88.9733 107° East 488 562 39,100  Level Houston Center
03:01AM 28.5708 -88.8231 106° East 489 563 39,100  Level Houston Center
03:02AM 28.5333 -88.6742 106° East 489 563 39,100  Level Houston Center
03:03AM 28.4939 -88.5261 107° East 490 564 39,100  Level Houston Center
03:04AM 28.4561 -88.3769 106° East 491 565 39,100  Level Houston Center
03:05AM 28.4161 -88.2297 107° East 491 565 39,100  Level Houston Center
03:06AM 28.3761 -88.0756 106° East 492 566 39,100  Level Houston Center
03:07AM 28.3367 -87.9281 107° East 491 565 39,100  Level Houston Center
03:08AM 28.2964 -87.7775 107° East 491 565 39,100  Level Houston Center
03:09AM 28.2572 -87.6297 107° East 491 565 39,100  Level Houston Center
03:10AM 28.2189 -87.4861 107° East 488 562 39,100  Level Houston Center
03:11AM 28.1789 -87.3389 107° East 488 562 39,100  Level Houston Center
03:12AM 28.1397 -87.1981 107° East 488 562 39,100  Level Houston Center
03:13AM 28.0992 -87.0469 107° East 487 560 39,100  Level Houston Center
03:14AM 28.0589 -86.9022 107° East 486 559 39,100  Level Houston Center
03:15AM 28.0189 -86.7569 107° East 487 560 39,100  Level Houston Center
03:16AM 27.9786 -86.6108 107° East 486 559 39,100  Level Houston Center
03:17AM 27.9319 -86.4439 108° East 484 557 39,100  Level Jacksonville Center
03:18AM 27.8900 -86.2944 108° East 484 557 39,100  Level Jacksonville Center
03:19AM 27.8481 -86.1500 108° East 489 563 39,100  Level Jacksonville Center
03:20AM 27.8078 -86.0081 108° East 483 556 39,100  Level Jacksonville Center
03:21AM 27.7653 -85.8567 108° East 483 556 39,100  Level Jacksonville Center
03:22AM 27.7228 -85.7100 108° East 493 567 39,100  Level Jacksonville Center
03:23AM 27.6819 -85.5753 109° East 478 550 39,100  Level Jacksonville Center
03:24AM 27.6317 -85.4033 108° East 493 567 39,100  Level Miami Center
03:25AM 27.5919 -85.2600 107° East 499 574 39,100  Level Miami Center
03:26AM 27.5464 -85.1139 109° East 491 565 39,100  Level Miami Center
03:27AM 27.5108 -84.9689 105° East 491 565 39,100  Level Miami Center
03:28AM 27.4531 -84.8058 112° Southeast 496 571 39,100  Level Miami Center
03:29AM 27.4172 -84.6633 106° East 491 565 39,100  Level Miami Center
03:30AM 27.3769 -84.5181 107° East 491 565 39,100  Level Miami Center
03:31AM 27.3303 -84.3747 110° East 491 565 39,100  Level Miami Center
03:32AM 27.2919 -84.2322 107° East 491 565 39,100  Level Miami Center
03:33AM 27.2469 -84.0894 109° East 491 565 39,100  Level Miami Center
03:34AM 27.2039 -83.9469 109° East 486 559 39,100  Level Miami Center
03:35AM 27.1608 -83.8042 109° East 486 559 39,100  Level Miami Center
03:36AM 27.1156 -83.6594 109° East 486 559 39,100  Level Miami Center
03:37AM 27.0872 -83.5506 106° East 486 559 39,100  Level Miami Center
03:38AM 27.0344 -83.3797 109° East 481 554 39,100  Level Miami Center
03:40AM 26.9450 -83.0931 109° East 476 548 39,100 -540 Level Miami Center
03:41AM 26.9028 -82.9558 109° East 476 548 37,600 -1,800 Descending Miami Center
03:42AM 26.8606 -82.8164 109° East 471 542 35,600 -1,800 Descending Miami Center
03:43AM 26.8181 -82.6842 110° East 466 536 34,000 -1,860 Descending Miami Center
03:44AM 26.7792 -82.5567 109° East 452 520 31,900 -2,220 Descending Miami Center
03:45AM 26.7383 -82.4267 109° East 439 505 29,600 -2,340 Descending Miami Center
03:46AM 26.6972 -82.2969 110° East 439 505 27,300 -2,100 Descending Miami Center
03:47AM 26.6581 -82.1719 109° East 434 499 25,500 -1,920 Descending Miami Center
03:48AM 26.6147 -82.0425 111° Southeast 434 499 23,500 -1,920 Descending Miami Center
03:49AM 26.5753 -81.9175 109° East 434 499 21,600 -1,860 Descending Miami Center
03:50AM 26.5378 -81.7931 109° East 429 494 19,800 -2,160 Descending Miami Center
03:51AM 26.4853 -81.6842 118° Southeast 415 478 17,500 -2,040 Descending Miami Center
03:52AM 26.4339 -81.5892 121° Southeast 403 464 15,700 -1,680 Descending Miami Center
03:53AM 26.3831 -81.4853 119° Southeast 393 452 14,200 -1,800 Descending Miami Center
03:54AM 26.3339 -81.3906 120° Southeast 367 422 12,200 -1,860 Descending Miami Center
03:55AM 26.2844 -81.2983 121° Southeast 360 414 10,500 -1,440 Descending Miami Center
03:56AM 26.2408 -81.2203 122° Southeast 330 380 9,400 -1,320 Descending Miami Center
03:57AM 26.2131 -81.1731 123° Southeast 290 334 8,600 -1,680 Descending Miami Center
03:57AM 26.2011 -81.1494 119° Southeast 293 337 8,100 -960 Descending Miami Center
03:57AM 26.2014 -81.1403 88° East 306 352 8,100 -420 Level Miami Center
03:58AM 26.1703 -81.0650 115° Southeast 300 345 7,700 -960 Descending Miami Center
03:59AM 26.1497 -80.9764 104° East 290 334 6,400 -1,260 Descending Miami Center
03:59AM 26.1522 -80.9672 73° East 289 333 6,300 -960 Descending Miami Center
04:00AM 26.1294 -80.8808 106° East 274 315 5,300 -1,080 Descending Miami Center
04:01AM 26.1150 -80.8042 102° East 276 318 4,300 -1,020 Descending Miami Center
04:02AM 26.0964 -80.7178 103° East 268 308 3,400 -660 Descending Miami Center
04:03AM 26.0817 -80.6386 102° East 258 297 3,000 -240 Descending Miami Center
04:04AM 26.0794 -80.5600 92° East 254 292 3,000  Level Miami Center
04:05AM 26.0792 -80.4836 90° East 251 289 3,000  Level Miami Center
04:06AM 26.0769 -80.4072 92° East 248 285 3,000  Level Miami Center
04:07AM 26.0767 -80.3356 90° East 249 287 3,000 -720 Level Miami Center
04:08AM 26.0742 -80.2661 92° East 217 250 1,700 -1,080 Descending Miami Center
04:09AM 26.0753 -80.2175 89° East 108 124 800 -900 Descending Miami Center
04:11AM 26.0667 -80.1500 90° East  Level FlightAware Approximate
04:18AM 26.0726 -80.1527 90° East  Level Estimated
04:19AM 26.0667 -80.1500 90° East  Level FlightAware Approximate